sensor_id;sensor_type;location;lat;lon;timestamp;pressure;altitude;pressure_sealevel;temperature;humidity
70841;BME280;58465;51.534;9.934;2023-02-12T00:02:21;101970.25;;;9.45;76.05
70841;BME280;58465;51.534;9.934;2023-02-12T00:04:47;101970.19;;;9.42;76.34
70841;BME280;58465;51.534;9.934;2023-02-12T00:07:12;101970.06;;;9.30;76.92
70841;BME280;58465;51.534;9.934;2023-02-12T00:09:37;101971.84;;;9.32;77.06
70841;BME280;58465;51.534;9.934;2023-02-12T00:12:02;101977.16;;;9.29;77.01
70841;BME280;58465;51.534;9.934;2023-02-12T00:14:28;101974.41;;;9.22;77.75
70841;BME280;58465;51.534;9.934;2023-02-12T00:16:53;101976.03;;;9.14;77.85
70841;BME280;58465;51.534;9.934;2023-02-12T00:19:18;101975.19;;;9.16;77.92
70841;BME280;58465;51.534;9.934;2023-02-12T00:21:44;101977.03;;;9.20;78.08
70841;BME280;58465;51.534;9.934;2023-02-12T00:24:09;101975.22;;;9.18;78.06
70841;BME280;58465;51.534;9.934;2023-02-12T00:26:35;101981.41;;;9.15;78.20
70841;BME280;58465;51.534;9.934;2023-02-12T00:29:00;101978.84;;;9.21;78.22
70841;BME280;58465;51.534;9.934;2023-02-12T00:31:28;101982.50;;;9.29;77.80
70841;BME280;58465;51.534;9.934;2023-02-12T00:33:54;101978.06;;;9.30;77.65
70841;BME280;58465;51.534;9.934;2023-02-12T00:36:22;101978.84;;;9.23;77.82
70841;BME280;58465;51.534;9.934;2023-02-12T00:38:50;101981.50;;;9.23;78.04
70841;BME280;58465;51.534;9.934;2023-02-12T00:41:16;101981.63;;;9.30;77.65
70841;BME280;58465;51.534;9.934;2023-02-12T00:43:41;101986.97;;;9.34;77.51
70841;BME280;58465;51.534;9.934;2023-02-12T00:46:06;101987.94;;;9.39;77.18
70841;BME280;58465;51.534;9.934;2023-02-12T00:48:33;101991.47;;;9.36;77.27
70841;BME280;58465;51.534;9.934;2023-02-12T00:50:59;101995.97;;;9.39;76.99
70841;BME280;58465;51.534;9.934;2023-02-12T00:53:24;101982.59;;;9.37;76.98
70841;BME280;58465;51.534;9.934;2023-02-12T00:55:49;101986.94;;;9.29;77.36
70841;BME280;58465;51.534;9.934;2023-02-12T00:58:15;101990.47;;;9.28;77.54
70841;BME280;58465;51.534;9.934;2023-02-12T01:00:41;101985.22;;;9.34;77.50
70841;BME280;58465;51.534;9.934;2023-02-12T01:03:06;101983.44;;;9.35;77.57
70841;BME280;58465;51.534;9.934;2023-02-12T01:05:32;101987.84;;;9.32;77.14
70841;BME280;58465;51.534;9.934;2023-02-12T01:07:57;101991.28;;;9.24;77.59
70841;BME280;58465;51.534;9.934;2023-02-12T01:10:22;101991.38;;;9.28;77.50
70841;BME280;58465;51.534;9.934;2023-02-12T01:12:48;101991.16;;;9.15;78.44
70841;BME280;58465;51.534;9.934;2023-02-12T01:15:14;101997.34;;;9.11;78.74
70841;BME280;58465;51.534;9.934;2023-02-12T01:17:40;102000.75;;;9.01;79.40
70841;BME280;58465;51.534;9.934;2023-02-12T01:20:08;101988.28;;;9.00;79.89
70841;BME280;58465;51.534;9.934;2023-02-12T01:22:36;101978.47;;;8.97;80.07
70841;BME280;58465;51.534;9.934;2023-02-12T01:25:03;101988.19;;;8.92;80.13
70841;BME280;58465;51.534;9.934;2023-02-12T01:27:29;101995.31;;;8.93;80.49
70841;BME280;58465;51.534;9.934;2023-02-12T01:29:54;101990.97;;;9.01;80.48
70841;BME280;58465;51.534;9.934;2023-02-12T01:32:19;101994.56;;;9.05;80.34
70841;BME280;58465;51.534;9.934;2023-02-12T01:34:45;101994.56;;;9.03;80.10
70841;BME280;58465;51.534;9.934;2023-02-12T01:37:10;101983.03;;;9.06;80.09
70841;BME280;58465;51.534;9.934;2023-02-12T01:39:36;101993.75;;;9.09;80.05
70841;BME280;58465;51.534;9.934;2023-02-12T01:42:02;101988.34;;;9.03;80.12
70841;BME280;58465;51.534;9.934;2023-02-12T01:44:29;101989.19;;;9.00;80.54
70841;BME280;58465;51.534;9.934;2023-02-12T01:47:03;101989.22;;;9.02;80.73
70841;BME280;58465;51.534;9.934;2023-02-12T01:49:33;101984.66;;;8.93;80.94
70841;BME280;58465;51.534;9.934;2023-02-12T01:52:17;101986.34;;;8.89;80.95
70841;BME280;58465;51.534;9.934;2023-02-12T01:54:44;101990.81;;;8.90;80.92
70841;BME280;58465;51.534;9.934;2023-02-12T01:57:11;101987.25;;;8.90;81.35
70841;BME280;58465;51.534;9.934;2023-02-12T01:59:39;101991.78;;;8.97;81.02
70841;BME280;58465;51.534;9.934;2023-02-12T02:02:07;101999.00;;;9.03;80.99
70841;BME280;58465;51.534;9.934;2023-02-12T02:04:40;101997.16;;;8.99;80.69
70841;BME280;58465;51.534;9.934;2023-02-12T02:07:08;102008.69;;;8.98;81.00
70841;BME280;58465;51.534;9.934;2023-02-12T02:09:36;101996.31;;;9.01;80.91
70841;BME280;58465;51.534;9.934;2023-02-12T02:12:02;102000.78;;;9.04;80.50
70841;BME280;58465;51.534;9.934;2023-02-12T02:14:47;101995.47;;;9.05;80.41
70841;BME280;58465;51.534;9.934;2023-02-12T02:17:34;101997.19;;;9.00;80.97
70841;BME280;58465;51.534;9.934;2023-02-12T02:20:33;102002.38;;;8.91;81.36
70841;BME280;58465;51.534;9.934;2023-02-12T02:23:21;101999.91;;;9.05;80.74
70841;BME280;58465;51.534;9.934;2023-02-12T02:29:03;101990.97;;;9.01;80.81
70841;BME280;58465;51.534;9.934;2023-02-12T02:31:42;101981.25;;;9.05;80.61
70841;BME280;58465;51.534;9.934;2023-02-12T02:34:18;101977.72;;;9.06;80.37
70841;BME280;58465;51.534;9.934;2023-02-12T02:36:55;101988.44;;;9.10;80.10
70841;BME280;58465;51.534;9.934;2023-02-12T02:42:08;101988.38;;;9.06;80.21
70841;BME280;58465;51.534;9.934;2023-02-12T02:44:41;101981.06;;;8.91;80.77
70841;BME280;58465;51.534;9.934;2023-02-12T02:47:13;101989.94;;;8.91;81.04
70841;BME280;58465;51.534;9.934;2023-02-12T02:49:43;101984.66;;;8.96;80.86
70841;BME280;58465;51.534;9.934;2023-02-12T02:52:15;101988.25;;;8.98;80.85
70841;BME280;58465;51.534;9.934;2023-02-12T02:54:45;101980.34;;;9.03;80.49
70841;BME280;58465;51.534;9.934;2023-02-12T02:57:16;101984.81;;;9.05;80.62
70841;BME280;58465;51.534;9.934;2023-02-12T02:59:46;101985.72;;;9.07;80.46
70841;BME280;58465;51.534;9.934;2023-02-12T03:02:22;101985.75;;;9.09;80.41
70841;BME280;58465;51.534;9.934;2023-02-12T03:05:11;101987.53;;;9.08;80.39
70841;BME280;58465;51.534;9.934;2023-02-12T03:07:46;101985.84;;;9.15;80.27
70841;BME280;58465;51.534;9.934;2023-02-12T03:10:24;101991.09;;;9.09;80.11
70841;BME280;58465;51.534;9.934;2023-02-12T03:12:56;101987.56;;;9.10;80.16
70841;BME280;58465;51.534;9.934;2023-02-12T03:15:42;101992.03;;;9.14;80.10
70841;BME280;58465;51.534;9.934;2023-02-12T03:18:13;101985.81;;;9.12;80.26
70841;BME280;58465;51.534;9.934;2023-02-12T03:20:46;101984.88;;;9.10;80.30
70841;BME280;58465;51.534;9.934;2023-02-12T03:23:16;101986.69;;;9.11;80.52
70841;BME280;58465;51.534;9.934;2023-02-12T03:25:49;101983.13;;;9.10;80.22
70841;BME280;58465;51.534;9.934;2023-02-12T03:28:21;101994.66;;;9.09;80.31
70841;BME280;58465;51.534;9.934;2023-02-12T03:31:06;101985.72;;;9.07;80.16
70841;BME280;58465;51.534;9.934;2023-02-12T03:36:32;101984.78;;;9.04;80.11
70841;BME280;58465;51.534;9.934;2023-02-12T03:39:10;101983.03;;;9.06;80.09
70841;BME280;58465;51.534;9.934;2023-02-12T03:41:44;101985.66;;;9.01;80.26
70841;BME280;58465;51.534;9.934;2023-02-12T03:44:19;101978.56;;;9.02;80.52
70841;BME280;58465;51.534;9.934;2023-02-12T03:49:46;101994.59;;;9.06;80.31
70841;BME280;58465;51.534;9.934;2023-02-12T03:52:13;101989.25;;;9.03;80.50
70841;BME280;58465;51.534;9.934;2023-02-12T03:54:39;101986.59;;;9.06;80.43
70841;BME280;58465;51.534;9.934;2023-02-12T03:57:10;101999.94;;;9.06;80.44
70841;BME280;58465;51.534;9.934;2023-02-12T03:59:37;101993.72;;;9.07;80.45
70841;BME280;58465;51.534;9.934;2023-02-12T04:02:04;101996.34;;;9.04;80.56
70841;BME280;58465;51.534;9.934;2023-02-12T04:04:29;101993.69;;;9.06;80.51
70841;BME280;58465;51.534;9.934;2023-02-12T04:06:56;101994.56;;;9.05;80.41
70841;BME280;58465;51.534;9.934;2023-02-12T04:09:23;101999.91;;;9.05;80.40
70841;BME280;58465;51.534;9.934;2023-02-12T04:23:00;102011.56;;;9.11;80.79
70841;BME280;58465;51.534;9.934;2023-02-12T04:25:50;102016.00;;;9.11;80.72
70841;BME280;58465;51.534;9.934;2023-02-12T04:31:05;102019.53;;;9.10;80.55
70841;BME280;58465;51.534;9.934;2023-02-12T04:33:45;102026.63;;;9.08;80.69
70841;BME280;58465;51.534;9.934;2023-02-12T04:36:22;102036.31;;;9.04;80.76
70841;BME280;58465;51.534;9.934;2023-02-12T04:38:57;102030.06;;;9.01;80.70
70841;BME280;58465;51.534;9.934;2023-02-12T04:41:24;102036.25;;;8.98;80.95
70841;BME280;58465;51.534;9.934;2023-02-12T04:43:50;102038.88;;;8.97;81.13
70841;BME280;58465;51.534;9.934;2023-02-12T04:46:15;102036.28;;;9.00;81.02
70841;BME280;58465;51.534;9.934;2023-02-12T04:48:55;102042.56;;;9.05;80.90
70841;BME280;58465;51.534;9.934;2023-02-12T04:51:22;102036.31;;;9.04;80.90
70841;BME280;58465;51.534;9.934;2023-02-12T04:53:47;102038.00;;;8.98;80.88
70841;BME280;58465;51.534;9.934;2023-02-12T04:56:13;102039.78;;;8.97;80.96
70841;BME280;58465;51.534;9.934;2023-02-12T04:58:39;102032.66;;;8.96;81.24
70841;BME280;58465;51.534;9.934;2023-02-12T05:01:06;102032.66;;;8.98;81.00
70841;BME280;58465;51.534;9.934;2023-02-12T05:03:31;102033.56;;;8.98;81.30
70841;BME280;58465;51.534;9.934;2023-02-12T05:06:04;102033.59;;;9.00;81.18
70841;BME280;58465;51.534;9.934;2023-02-12T05:08:30;102041.59;;;9.00;80.98
70841;BME280;58465;51.534;9.934;2023-02-12T05:10:55;102048.72;;;9.01;81.05
70841;BME280;58465;51.534;9.934;2023-02-12T05:13:20;102039.88;;;9.05;80.95
70841;BME280;58465;51.534;9.934;2023-02-12T05:15:46;102031.94;;;9.08;80.64
70841;BME280;58465;51.534;9.934;2023-02-12T05:18:11;102044.38;;;9.07;80.72
70841;BME280;58465;51.534;9.934;2023-02-12T05:20:36;102048.00;;;9.11;80.56
70841;BME280;58465;51.534;9.934;2023-02-12T05:23:04;102045.34;;;9.11;80.50
70841;BME280;58465;51.534;9.934;2023-02-12T05:25:29;102042.63;;;9.09;80.39
70841;BME280;58465;51.534;9.934;2023-02-12T05:27:56;102048.91;;;9.11;80.39
70841;BME280;58465;51.534;9.934;2023-02-12T05:30:21;102044.44;;;9.10;80.67
70841;BME280;58465;51.534;9.934;2023-02-12T05:32:46;102034.66;;;9.11;80.44
70841;BME280;58465;51.534;9.934;2023-02-12T05:35:11;102042.63;;;9.09;80.52
70841;BME280;58465;51.534;9.934;2023-02-12T05:37:37;102047.09;;;9.10;80.54
70841;BME280;58465;51.534;9.934;2023-02-12T05:40:04;102049.75;;;9.10;80.42
70841;BME280;58465;51.534;9.934;2023-02-12T05:42:29;102050.63;;;9.09;80.59
70841;BME280;58465;51.534;9.934;2023-02-12T05:44:55;102054.19;;;9.10;80.45
70841;BME280;58465;51.534;9.934;2023-02-12T05:47:20;102048.88;;;9.10;80.61
70841;BME280;58465;51.534;9.934;2023-02-12T05:49:45;102044.44;;;9.10;80.44
70841;BME280;58465;51.534;9.934;2023-02-12T05:52:10;102048.00;;;9.11;80.42
70841;BME280;58465;51.534;9.934;2023-02-12T05:54:35;102053.34;;;9.12;80.49
70841;BME280;58465;51.534;9.934;2023-02-12T05:57:01;102042.66;;;9.11;80.33
70841;BME280;58465;51.534;9.934;2023-02-12T05:59:26;102055.09;;;9.10;80.37
70841;BME280;58465;51.534;9.934;2023-02-12T06:01:51;102061.31;;;9.11;80.35
70841;BME280;58465;51.534;9.934;2023-02-12T06:04:19;102064.00;;;9.11;80.38
70841;BME280;58465;51.534;9.934;2023-02-12T06:06:45;102061.31;;;9.11;80.33
70841;BME280;58465;51.534;9.934;2023-02-12T06:09:12;102055.13;;;9.12;80.48
70841;BME280;58465;51.534;9.934;2023-02-12T06:11:38;102064.03;;;9.12;80.45
70841;BME280;58465;51.534;9.934;2023-02-12T06:14:05;102062.25;;;9.13;80.50
70841;BME280;58465;51.534;9.934;2023-02-12T06:16:31;102059.59;;;9.13;80.43
70841;BME280;58465;51.534;9.934;2023-02-12T06:18:57;102070.25;;;9.14;80.43
70841;BME280;58465;51.534;9.934;2023-02-12T06:21:24;102067.59;;;9.13;80.49
70841;BME280;58465;51.534;9.934;2023-02-12T06:23:50;102072.91;;;9.13;80.26
70841;BME280;58465;51.534;9.934;2023-02-12T06:26:16;102071.13;;;9.12;80.37
70841;BME280;58465;51.534;9.934;2023-02-12T06:28:42;102072.00;;;9.11;80.42
70841;BME280;58465;51.534;9.934;2023-02-12T06:31:28;102072.00;;;9.11;80.37
70841;BME280;58465;51.534;9.934;2023-02-12T06:33:57;102075.56;;;9.11;80.28
70841;BME280;58465;51.534;9.934;2023-02-12T06:36:23;102074.66;;;9.11;80.27
70841;BME280;58465;51.534;9.934;2023-02-12T06:38:49;102075.56;;;9.11;80.39
70841;BME280;58465;51.534;9.934;2023-02-12T06:41:15;102084.44;;;9.12;80.46
70841;BME280;58465;51.534;9.934;2023-02-12T06:43:40;102083.59;;;9.13;80.49
70841;BME280;58465;51.534;9.934;2023-02-12T06:46:06;102085.34;;;9.14;80.51
70841;BME280;58465;51.534;9.934;2023-02-12T06:48:32;102091.56;;;9.14;80.42
70841;BME280;58465;51.534;9.934;2023-02-12T06:51:06;102104.00;;;9.14;80.27
70841;BME280;58465;51.534;9.934;2023-02-12T06:53:32;102108.44;;;9.13;80.33
70841;BME280;58465;51.534;9.934;2023-02-12T06:56:02;102100.38;;;9.09;80.44
70841;BME280;58465;51.534;9.934;2023-02-12T06:58:28;102104.81;;;9.08;80.24
70841;BME280;58465;51.534;9.934;2023-02-12T07:00:53;102106.50;;;9.02;80.44
70841;BME280;58465;51.534;9.934;2023-02-12T07:03:18;102110.09;;;9.05;80.54
70841;BME280;58465;51.534;9.934;2023-02-12T07:05:44;102105.59;;;9.01;80.48
70841;BME280;58465;51.534;9.934;2023-02-12T07:08:10;102114.53;;;9.03;80.56
70841;BME280;58465;51.534;9.934;2023-02-12T07:10:35;102116.31;;;9.06;80.72
70841;BME280;58465;51.534;9.934;2023-02-12T07:13:00;102119.00;;;9.07;80.67
70841;BME280;58465;51.534;9.934;2023-02-12T07:15:26;102125.31;;;9.11;80.73
70841;BME280;58465;51.534;9.934;2023-02-12T07:17:51;102126.25;;;9.14;80.61
70841;BME280;58465;51.534;9.934;2023-02-12T07:20:16;102123.59;;;9.16;80.52
70841;BME280;58465;51.534;9.934;2023-02-12T07:22:42;102116.47;;;9.15;80.71
70841;BME280;58465;51.534;9.934;2023-02-12T07:25:07;102123.56;;;9.13;80.51
70841;BME280;58465;51.534;9.934;2023-02-12T07:27:35;102132.47;;;9.15;80.37
70841;BME280;58465;51.534;9.934;2023-02-12T07:30:01;102134.22;;;9.14;80.47
70841;BME280;58465;51.534;9.934;2023-02-12T07:32:26;102137.81;;;9.15;80.37
70841;BME280;58465;51.534;9.934;2023-02-12T07:34:52;102136.06;;;9.17;80.56
70841;BME280;58465;51.534;9.934;2023-02-12T07:37:17;102135.25;;;9.21;80.58
70841;BME280;58465;51.534;9.934;2023-02-12T07:39:46;102136.16;;;9.23;80.31
70841;BME280;58465;51.534;9.934;2023-02-12T07:42:11;102143.28;;;9.24;80.33
70841;BME280;58465;51.534;9.934;2023-02-12T07:44:39;102145.13;;;9.26;80.39
70841;BME280;58465;51.534;9.934;2023-02-12T07:47:04;102141.59;;;9.29;80.58
70841;BME280;58465;51.534;9.934;2023-02-12T07:49:30;102147.91;;;9.34;80.45
70841;BME280;58465;51.534;9.934;2023-02-12T07:51:55;102140.84;;;9.38;80.42
70841;BME280;58465;51.534;9.934;2023-02-12T07:54:20;102148.81;;;9.36;80.23
70841;BME280;58465;51.534;9.934;2023-02-12T07:56:46;102145.38;;;9.43;80.18
70841;BME280;58465;51.534;9.934;2023-02-12T07:59:13;102146.34;;;9.48;80.09
70841;BME280;58465;51.534;9.934;2023-02-12T08:01:50;102150.88;;;9.54;79.92
70841;BME280;58465;51.534;9.934;2023-02-12T08:04:18;102151.78;;;9.54;79.61
70841;BME280;58465;51.534;9.934;2023-02-12T08:06:46;102152.66;;;9.55;79.82
70841;BME280;58465;51.534;9.934;2023-02-12T08:09:23;102144.75;;;9.59;79.61
70841;BME280;58465;51.534;9.934;2023-02-12T08:11:48;102144.81;;;9.64;79.48
70841;BME280;58465;51.534;9.934;2023-02-12T08:14:16;102149.38;;;9.73;79.45
70841;BME280;58465;51.534;9.934;2023-02-12T08:16:42;102145.88;;;9.77;79.08
70841;BME280;58465;51.534;9.934;2023-02-12T08:19:08;102136.16;;;9.80;78.74
70841;BME280;58465;51.534;9.934;2023-02-12T08:21:34;102136.16;;;9.80;78.72
70841;BME280;58465;51.534;9.934;2023-02-12T08:23:59;102144.16;;;9.80;78.48
70841;BME280;58465;51.534;9.934;2023-02-12T08:26:28;102144.19;;;9.83;78.41
70841;BME280;58465;51.534;9.934;2023-02-12T08:28:56;102150.47;;;9.87;78.11
70841;BME280;58465;51.534;9.934;2023-02-12T08:31:24;102141.63;;;9.89;78.24
70841;BME280;58465;51.534;9.934;2023-02-12T08:33:50;102144.31;;;9.92;78.07
70841;BME280;58465;51.534;9.934;2023-02-12T08:36:22;102147.94;;;9.96;78.00
70841;BME280;58465;51.534;9.934;2023-02-12T08:38:48;102144.44;;;10.01;77.82
70841;BME280;58465;51.534;9.934;2023-02-12T08:41:16;102153.41;;;10.05;77.78
70841;BME280;58465;51.534;9.934;2023-02-12T08:43:43;102155.19;;;10.06;77.49
70841;BME280;58465;51.534;9.934;2023-02-12T08:46:11;102156.13;;;10.08;77.31
70841;BME280;58465;51.534;9.934;2023-02-12T08:48:37;102160.66;;;10.15;77.27
70841;BME280;58465;51.534;9.934;2023-02-12T08:51:11;102152.75;;;10.23;77.18
70841;BME280;58465;51.534;9.934;2023-02-12T08:53:38;102158.13;;;10.24;77.08
70841;BME280;58465;51.534;9.934;2023-02-12T08:56:04;102160.84;;;10.29;76.73
70841;BME280;58465;51.534;9.934;2023-02-12T08:58:31;102155.59;;;10.36;76.75
70841;BME280;58465;51.534;9.934;2023-02-12T09:00:56;102160.97;;;10.38;76.42
70841;BME280;58465;51.534;9.934;2023-02-12T09:03:21;102161.03;;;10.44;76.44
70841;BME280;58465;51.534;9.934;2023-02-12T09:05:47;102167.28;;;10.48;76.02
70841;BME280;58465;51.534;9.934;2023-02-12T09:08:12;102168.22;;;10.50;75.81
70841;BME280;58465;51.534;9.934;2023-02-12T09:10:39;102173.53;;;10.47;75.46
70841;BME280;58465;51.534;9.934;2023-02-12T09:13:06;102169.09;;;10.49;75.70
70841;BME280;58465;51.534;9.934;2023-02-12T09:15:38;102179.81;;;10.52;75.40
70841;BME280;58465;51.534;9.934;2023-02-12T09:18:04;102178.09;;;10.55;75.53
70841;BME280;58465;51.534;9.934;2023-02-12T09:20:30;102178.16;;;10.63;75.34
70841;BME280;58465;51.534;9.934;2023-02-12T09:22:57;102186.22;;;10.67;74.98
70841;BME280;58465;51.534;9.934;2023-02-12T09:25:22;102188.91;;;10.67;74.75
70841;BME280;58465;51.534;9.934;2023-02-12T09:27:48;102181.78;;;10.66;74.55
70841;BME280;58465;51.534;9.934;2023-02-12T09:30:13;102190.69;;;10.68;74.59
70841;BME280;58465;51.534;9.934;2023-02-12T09:32:38;102188.03;;;10.70;74.76
70841;BME280;58465;51.534;9.934;2023-02-12T09:35:04;102190.69;;;10.65;74.75
70841;BME280;58465;51.534;9.934;2023-02-12T09:37:29;102194.22;;;10.63;74.82
70841;BME280;58465;51.534;9.934;2023-02-12T09:39:55;102199.66;;;10.72;74.45
70841;BME280;58465;51.534;9.934;2023-02-12T09:45:09;102198.88;;;10.82;74.20
70841;BME280;58465;51.534;9.934;2023-02-12T09:47:58;102202.53;;;10.90;73.55
70841;BME280;58465;51.534;9.934;2023-02-12T09:50:34;102204.41;;;10.99;73.37
70841;BME280;58465;51.534;9.934;2023-02-12T09:53:02;102199.09;;;11.02;73.12
70841;BME280;58465;51.534;9.934;2023-02-12T09:55:30;102201.81;;;11.08;73.08
70841;BME280;58465;51.534;9.934;2023-02-12T09:57:56;102199.28;;;11.22;72.96
70841;BME280;58465;51.534;9.934;2023-02-12T10:00:29;102201.16;;;11.33;72.48
70841;BME280;58465;51.534;9.934;2023-02-12T10:02:57;102201.22;;;11.41;71.56
70841;BME280;58465;51.534;9.934;2023-02-12T10:05:35;102200.34;;;11.42;71.08
70841;BME280;58465;51.534;9.934;2023-02-12T10:08:12;102211.09;;;11.48;70.78
70841;BME280;58465;51.534;9.934;2023-02-12T10:10:50;102214.59;;;11.39;70.29
70841;BME280;58465;51.534;9.934;2023-02-12T10:13:27;102209.13;;;11.27;70.96
70841;BME280;58465;51.534;9.934;2023-02-12T10:18:45;102204.72;;;11.32;70.60
70841;BME280;58465;51.534;9.934;2023-02-12T10:21:30;102205.53;;;11.27;70.70
70841;BME280;58465;51.534;9.934;2023-02-12T10:26:54;102202.09;;;11.38;69.98
70841;BME280;58465;51.534;9.934;2023-02-12T10:29:27;102200.28;;;11.37;70.30
70841;BME280;58465;51.534;9.934;2023-02-12T10:31:57;102205.66;;;11.37;70.42
70841;BME280;58465;51.534;9.934;2023-02-12T10:34:28;102202.94;;;11.31;70.30
70841;BME280;58465;51.534;9.934;2023-02-12T10:37:24;102204.91;;;11.52;69.99
70841;BME280;58465;51.534;9.934;2023-02-12T10:39:59;102207.75;;;11.75;69.28
70841;BME280;58465;51.534;9.934;2023-02-12T10:42:39;102208.78;;;11.95;68.73
70841;BME280;58465;51.534;9.934;2023-02-12T10:45:05;102196.34;;;12.05;68.47
70841;BME280;58465;51.534;9.934;2023-02-12T10:47:30;102198.16;;;12.12;68.33
70841;BME280;58465;51.534;9.934;2023-02-12T10:50:01;102205.28;;;12.07;67.97
70841;BME280;58465;51.534;9.934;2023-02-12T10:52:44;102196.31;;;11.97;68.26
70841;BME280;58465;51.534;9.934;2023-02-12T10:55:31;102204.09;;;11.62;68.39
70841;BME280;58465;51.534;9.934;2023-02-12T10:57:58;102198.53;;;11.39;69.51
70841;BME280;58465;51.534;9.934;2023-02-12T11:00:29;102207.63;;;11.64;69.60
70841;BME280;58465;51.534;9.934;2023-02-12T11:05:31;102208.81;;;11.97;68.67
70841;BME280;58465;51.534;9.934;2023-02-12T11:07:57;102202.50;;;11.93;68.25
70841;BME280;58465;51.534;9.934;2023-02-12T11:10:39;102201.63;;;11.89;68.16
70841;BME280;58465;51.534;9.934;2023-02-12T11:13:22;102209.59;;;11.83;68.19
70841;BME280;58465;51.534;9.934;2023-02-12T11:15:49;102205.09;;;11.78;68.19
70841;BME280;58465;51.534;9.934;2023-02-12T11:20:50;102198.19;;;12.15;66.66
70841;BME280;58465;51.534;9.934;2023-02-12T11:23:37;102197.38;;;12.28;65.90
70841;BME280;58465;51.534;9.934;2023-02-12T11:29:01;102192.63;;;11.83;67.11
70841;BME280;58465;51.534;9.934;2023-02-12T11:31:32;102192.50;;;11.66;67.23
70841;BME280;58465;51.534;9.934;2023-02-12T11:36:40;102192.31;;;11.42;68.39
70841;BME280;58465;51.534;9.934;2023-02-12T11:39:22;102185.25;;;11.51;68.42
70841;BME280;58465;51.534;9.934;2023-02-12T11:42:04;102190.69;;;11.65;68.22
70841;BME280;58465;51.534;9.934;2023-02-12T11:44:36;102191.72;;;11.82;67.77
70841;BME280;58465;51.534;9.934;2023-02-12T11:47:09;102183.78;;;11.95;67.29
70841;BME280;58465;51.534;9.934;2023-02-12T11:50:04;102183.78;;;11.96;66.58
70841;BME280;58465;51.534;9.934;2023-02-12T11:52:33;102190.91;;;11.89;67.02
70841;BME280;58465;51.534;9.934;2023-02-12T11:55:02;102194.41;;;11.82;66.92
70841;BME280;58465;51.534;9.934;2023-02-12T12:00:03;102187.28;;;11.81;66.92
70841;BME280;58465;51.534;9.934;2023-02-12T12:02:36;102183.59;;;11.69;67.08
70841;BME280;58465;51.534;9.934;2023-02-12T12:05:11;102176.47;;;11.69;67.51
70841;BME280;58465;51.534;9.934;2023-02-12T12:07:42;102188.03;;;11.67;67.69
70841;BME280;58465;51.534;9.934;2023-02-12T12:10:16;102182.59;;;11.56;68.04
70841;BME280;58465;51.534;9.934;2023-02-12T12:12:53;102179.00;;;11.49;68.47
70841;BME280;58465;51.534;9.934;2023-02-12T12:15:29;102185.28;;;11.56;68.45
70841;BME280;58465;51.534;9.934;2023-02-12T12:18:23;102179.97;;;11.61;68.42
70841;BME280;58465;51.534;9.934;2023-02-12T12:21:15;102182.63;;;11.59;68.58
70841;BME280;58465;51.534;9.934;2023-02-12T12:23:51;102184.50;;;11.69;68.27
70841;BME280;58465;51.534;9.934;2023-02-12T12:26:30;102182.84;;;11.82;67.87
70841;BME280;58465;51.534;9.934;2023-02-12T12:29:19;102184.50;;;11.74;67.72
70841;BME280;58465;51.534;9.934;2023-02-12T12:31:52;102183.66;;;11.76;67.75
70841;BME280;58465;51.534;9.934;2023-02-12T12:34:22;102176.53;;;11.77;67.38
70841;BME280;58465;51.534;9.934;2023-02-12T12:48:19;102171.13;;;11.71;67.29
70841;BME280;58465;51.534;9.934;2023-02-12T12:51:09;102173.75;;;11.62;67.50
70841;BME280;58465;51.534;9.934;2023-02-12T12:53:46;102170.13;;;11.58;67.33
70841;BME280;58465;51.534;9.934;2023-02-12T12:56:28;102165.72;;;11.62;67.63
70841;BME280;58465;51.534;9.934;2023-02-12T13:07:56;102161.28;;;11.68;66.91
70841;BME280;58465;51.534;9.934;2023-02-12T13:10:58;102158.63;;;11.71;66.88
70841;BME280;58465;51.534;9.934;2023-02-12T13:13:35;102157.81;;;11.77;66.04
70841;BME280;58465;51.534;9.934;2023-02-12T13:16:12;102160.31;;;11.57;66.12
70841;BME280;58465;51.534;9.934;2023-02-12T13:18:53;102157.69;;;11.65;66.38
70841;BME280;58465;51.534;9.934;2023-02-12T13:21:33;102151.47;;;11.70;66.24
70841;BME280;58465;51.534;9.934;2023-02-12T13:24:10;102154.13;;;11.66;66.23
70841;BME280;58465;51.534;9.934;2023-02-12T13:26:57;102159.47;;;11.66;66.64
70841;BME280;58465;51.534;9.934;2023-02-12T13:29:28;102156.78;;;11.61;66.95
70841;BME280;58465;51.534;9.934;2023-02-12T13:32:21;102154.97;;;11.59;66.64
70841;BME280;58465;51.534;9.934;2023-02-12T13:34:48;102144.31;;;11.68;66.83
70841;BME280;58465;51.534;9.934;2023-02-12T13:37:23;102150.69;;;11.79;66.59
70841;BME280;58465;51.534;9.934;2023-02-12T13:39:50;102143.59;;;11.88;66.05
70841;BME280;58465;51.534;9.934;2023-02-12T13:42:34;102148.94;;;11.93;65.88
70841;BME280;58465;51.534;9.934;2023-02-12T13:45:23;102140.03;;;11.89;65.48
70841;BME280;58465;51.534;9.934;2023-02-12T13:48:15;102141.78;;;11.86;65.58
70841;BME280;58465;51.534;9.934;2023-02-12T13:53:43;102139.94;;;11.76;66.02
70841;BME280;58465;51.534;9.934;2023-02-12T13:56:18;102138.94;;;11.66;66.35
70841;BME280;58465;51.534;9.934;2023-02-12T13:58:51;102128.22;;;11.60;66.37
70841;BME280;58465;51.534;9.934;2023-02-12T14:01:42;102135.38;;;11.61;66.48
70841;BME280;58465;51.534;9.934;2023-02-12T14:06:57;102128.19;;;11.52;66.50
70841;BME280;58465;51.534;9.934;2023-02-12T14:09:29;102135.31;;;11.52;66.93
70841;BME280;58465;51.534;9.934;2023-02-12T14:11:57;102129.75;;;11.28;67.45
70841;BME280;58465;51.534;9.934;2023-02-12T14:14:44;102127.06;;;11.23;67.82
70841;BME280;58465;51.534;9.934;2023-02-12T14:20:19;102127.94;;;11.21;67.64
70841;BME280;58465;51.534;9.934;2023-02-12T14:37:55;102135.16;;;11.32;67.93
70841;BME280;58465;51.534;9.934;2023-02-12T14:45:47;102127.06;;;11.26;67.91
70841;BME280;58465;51.534;9.934;2023-02-12T14:48:49;102131.53;;;11.27;68.02
70841;BME280;58465;51.534;9.934;2023-02-12T14:51:27;102126.16;;;11.26;67.62
70841;BME280;58465;51.534;9.934;2023-02-12T14:53:55;102127.97;;;11.27;67.77